Accueil
Images satellite Prévisions 10 joursClimatMétéo marine Cyclones Foudre AéroportsFAQ Actualités A propos
Météo : Europe Afrique Amérique du Nord Amérique du Sud Asie Australie-Océanie Autres
Langues Contact

Bauru, São Paulo, Brésil

latitude: 22-19S, longitude: 049-04W, altitude: 590 m


METAR: SBBU 261000Z 05002KT 9999 -RA BKN030 BKN070 22/21 Q1016
TAF: absent

Heure: 08:20 (10:20 UTC)

Observation

Le bulletin a été fait il y a 20 minutes, à 10:00 UTC
Vent 2 kt de nord-est
Température 22°C
Humidité 94%
Pression 1016 hPa
Visibilité 10 km ou plus
Nuages fragmentés à une hauteur de 3000 ft
Nuages fragmentés à une hauteur de 7000 ft
faible pluie

Changer d'unités
Les informations qui figurent sur ce site font l'objet d'une clause de non-responsabilité
Météo : Europe Afrique Amérique du Nord Amérique du Sud Asie Australie-Océanie Autres
Images satellite Prévisions 10 joursClimatMétéo marine Cyclones Foudre AéroportsFAQ Langues Contact Actualités A propos